Time;durP1;ratioP1;P1;durP2;ratioP2;P2;SDS_P1;SDS_P2;PMS_P1;PMS_P2;Temp;Humidity;BMP_temperature;BMP_pressure;BME280_temperature;BME280_humidity;BME280_pressure;Samples;Min_cycle;Max_cycle;Signal;HPM_P1;HPM_P2
2023/07/12 00:01:26;;;;;;;8.27;2.72;;;20.00;99.90;;;;;;5038662;28;20024;-91
2023/07/12 00:03:54;;;;;;;9.77;2.83;;;20.00;99.90;;;;;;5042604;28;20450;-91
2023/07/12 00:06:28;;;;;;;7.68;2.50;;;20.00;99.90;;;;;;5061059;28;20032;-91
2023/07/12 00:08:54;;;;;;;9.18;2.92;;;20.00;99.90;;;;;;5062757;28;20032;-91
2023/07/12 00:11:30;;;;;;;8.07;2.50;;;19.90;99.90;;;;;;5064073;28;20024;-91
2023/07/12 00:14:01;;;;;;;9.02;3.15;;;19.90;99.90;;;;;;5062595;28;20027;-91
2023/07/12 00:16:37;;;;;;;9.80;2.75;;;19.80;99.90;;;;;;5062406;28;20465;-91
2023/07/12 00:19:25;;;;;;;7.00;2.75;;;19.80;99.90;;;;;;5052135;28;20376;-91
2023/07/12 00:21:59;;;;;;;6.65;2.10;;;19.70;99.90;;;;;;5046418;28;20028;-91
2023/07/12 00:24:29;;;;;;;8.55;2.53;;;19.70;99.90;;;;;;5045900;28;20032;-91
2023/07/12 00:26:58;;;;;;;8.25;2.63;;;19.70;99.90;;;;;;5061847;28;20038;-91
2023/07/12 00:29:27;;;;;;;6.55;2.35;;;19.60;99.90;;;;;;5062276;28;20038;-90
2023/07/12 00:31:55;;;;;;;8.07;2.67;;;19.60;99.90;;;;;;5045133;28;20055;-90
2023/07/12 00:34:26;;;;;;;5.85;2.15;;;19.60;99.90;;;;;;5014060;28;20426;-90
2023/07/12 00:36:55;;;;;;;6.75;2.35;;;19.50;99.90;;;;;;5063018;28;20028;-90
2023/07/12 00:39:21;;;;;;;6.53;2.03;;;19.50;99.90;;;;;;5045260;28;20032;-91
2023/07/12 00:42:06;;;;;;;8.10;2.55;;;19.50;99.90;;;;;;5045535;28;20040;-91
2023/07/12 00:45:05;;;;;;;11.30;2.85;;;19.50;99.90;;;;;;5058376;28;20174;-92
2023/07/12 00:47:33;;;;;;;8.13;2.67;;;19.50;99.90;;;;;;5025659;28;20036;-91
2023/07/12 00:50:00;;;;;;;7.93;2.50;;;19.40;99.90;;;;;;5057993;28;20036;-91
2023/07/12 00:52:29;;;;;;;8.05;2.70;;;19.40;99.90;;;;;;5025634;28;20025;-91
2023/07/12 00:55:03;;;;;;;9.57;2.97;;;19.40;99.90;;;;;;5024278;28;20033;-90
2023/07/12 00:57:31;;;;;;;8.52;2.95;;;19.40;99.90;;;;;;5026197;28;20035;-90
2023/07/12 01:00:11;;;;;;;10.57;2.53;;;19.30;99.90;;;;;;5025473;28;20041;-91
2023/07/12 01:02:41;;;;;;;11.60;2.90;;;19.30;99.90;;;;;;5026050;28;20024;-91
2023/07/12 01:05:11;;;;;;;8.52;3.03;;;19.30;99.90;;;;;;5036057;28;20131;-90
2023/07/12 01:07:37;;;;;;;8.35;3.17;;;19.30;99.90;;;;;;5044965;28;20032;-90
2023/07/12 01:10:08;;;;;;;9.00;3.08;;;19.20;99.90;;;;;;5061573;28;20035;-90
2023/07/12 01:12:38;;;;;;;8.30;2.70;;;19.20;99.90;;;;;;5078524;28;20419;-90
2023/07/12 01:15:12;;;;;;;11.15;3.00;;;19.20;99.90;;;;;;5077512;28;20426;-91
2023/07/12 01:17:38;;;;;;;10.15;2.97;;;19.20;99.90;;;;;;5061913;28;20036;-90
2023/07/12 01:20:14;;;;;;;10.55;3.05;;;19.10;99.90;;;;;;5061989;28;20097;-92
2023/07/12 01:22:43;;;;;;;13.25;3.50;;;19.10;99.90;;;;;;5045439;28;20113;-90
2023/07/12 01:25:14;;;;;;;10.77;3.20;;;19.10;99.90;;;;;;5046291;28;20039;-90
2023/07/12 01:27:40;;;;;;;11.70;3.20;;;19.10;99.90;;;;;;5045219;28;20414;-90
2023/07/12 01:30:08;;;;;;;11.02;3.38;;;19.00;99.90;;;;;;5044820;28;20115;-90
2023/07/12 01:32:36;;;;;;;14.65;3.35;;;19.10;99.90;;;;;;5037678;28;20055;-90
2023/07/12 01:35:02;;;;;;;13.23;3.88;;;19.00;99.90;;;;;;5021500;28;20021;-90
2023/07/12 01:37:29;;;;;;;14.57;3.42;;;19.00;99.90;;;;;;5021978;28;20072;-89
2023/07/12 01:39:57;;;;;;;15.05;3.25;;;19.00;99.90;;;;;;5037897;28;20036;-93
2023/07/12 01:42:23;;;;;;;14.60;4.40;;;19.00;99.90;;;;;;5041124;28;20484;-89
2023/07/12 01:44:49;;;;;;;14.77;3.78;;;19.00;99.90;;;;;;5057573;28;20028;-89
2023/07/12 01:47:17;;;;;;;11.93;3.42;;;18.90;99.90;;;;;;5040687;28;20454;-89
2023/07/12 01:49:50;;;;;;;12.27;3.55;;;18.90;99.90;;;;;;5057623;28;20423;-90
2023/07/12 01:52:18;;;;;;;16.58;3.78;;;18.90;99.90;;;;;;4992000;28;20039;-90
2023/07/12 01:54:44;;;;;;;14.95;4.13;;;18.90;99.90;;;;;;5054248;28;20033;-88
2023/07/12 01:57:10;;;;;;;14.32;4.10;;;18.90;99.90;;;;;;5005099;28;20079;-88
2023/07/12 01:59:37;;;;;;;13.65;3.47;;;18.90;99.90;;;;;;5037463;28;20041;-89
2023/07/12 02:02:05;;;;;;;19.95;4.00;;;18.90;99.90;;;;;;5054108;28;20041;-89
2023/07/12 02:04:33;;;;;;;17.27;4.15;;;18.90;99.90;;;;;;5022474;28;20468;-89
2023/07/12 02:06:59;;;;;;;16.52;4.28;;;18.90;99.90;;;;;;5024733;28;20095;-89
2023/07/12 02:09:32;;;;;;;18.17;4.60;;;18.90;99.90;;;;;;5041126;28;20117;-89
2023/07/12 02:11:58;;;;;;;14.13;4.10;;;18.90;99.90;;;;;;5056738;28;20036;-89
2023/07/12 02:14:24;;;;;;;12.23;3.75;;;18.90;99.90;;;;;;5024574;28;20037;-89
2023/07/12 02:16:50;;;;;;;16.75;4.10;;;18.90;99.90;;;;;;5032119;28;20069;-89
2023/07/12 02:19:16;;;;;;;10.38;3.53;;;18.90;99.90;;;;;;5040574;28;20036;-89
2023/07/12 02:21:43;;;;;;;15.45;4.00;;;18.90;99.90;;;;;;5054333;28;20033;-89
2023/07/12 02:24:09;;;;;;;17.15;4.30;;;18.90;99.90;;;;;;5061085;28;20036;-89
2023/07/12 02:26:36;;;;;;;16.50;4.20;;;18.90;99.90;;;;;;5044341;28;20123;-89
2023/07/12 02:29:02;;;;;;;12.98;3.63;;;18.90;99.90;;;;;;5027960;28;20025;-89
2023/07/12 02:31:31;;;;;;;19.15;4.97;;;18.80;99.90;;;;;;5043566;28;20044;-88
2023/07/12 02:33:57;;;;;;;14.07;4.20;;;18.80;99.90;;;;;;5024576;28;20436;-90
2023/07/12 02:36:26;;;;;;;16.67;3.80;;;18.80;99.90;;;;;;5054039;28;20024;-89
2023/07/12 02:38:52;;;;;;;18.88;4.68;;;18.80;99.90;;;;;;5060509;28;20032;-89
2023/07/12 02:41:18;;;;;;;14.02;3.83;;;18.80;99.90;;;;;;5043855;28;20345;-89
2023/07/12 02:43:46;;;;;;;18.75;4.72;;;18.80;99.90;;;;;;5043772;28;20374;-90
2023/07/12 02:46:15;;;;;;;17.98;4.45;;;18.80;99.90;;;;;;5043939;28;20021;-88
2023/07/12 02:48:44;;;;;;;15.27;3.70;;;18.80;99.90;;;;;;5060784;28;20055;-90
2023/07/12 02:51:29;;;;;;;13.88;3.88;;;18.70;99.90;;;;;;5060119;28;20059;-93
2023/07/12 02:53:58;;;;;;;16.10;4.13;;;18.70;99.90;;;;;;5042325;28;20040;-89
2023/07/12 02:56:27;;;;;;;22.35;4.65;;;18.70;99.90;;;;;;5040384;28;20025;-89
2023/07/12 02:58:55;;;;;;;13.68;3.70;;;18.70;99.90;;;;;;5024312;28;20431;-89
2023/07/12 03:01:26;;;;;;;15.75;4.20;;;18.70;99.90;;;;;;5023518;28;20289;-89
2023/07/12 03:03:53;;;;;;;17.70;4.40;;;18.70;99.90;;;;;;5054152;28;20036;-89
2023/07/12 03:06:19;;;;;;;16.15;4.18;;;18.70;99.90;;;;;;5059635;28;20311;-89
2023/07/12 03:08:45;;;;;;;18.77;4.50;;;18.70;99.90;;;;;;5042803;28;20032;-89
2023/07/12 03:11:16;;;;;;;14.27;4.13;;;18.70;99.90;;;;;;5024217;28;20387;-89
2023/07/12 03:13:46;;;;;;;15.50;4.22;;;18.70;99.90;;;;;;5007311;28;20079;-89
2023/07/12 03:16:12;;;;;;;16.33;4.10;;;18.70;99.90;;;;;;5007137;28;20116;-90
2023/07/12 03:18:40;;;;;;;19.02;4.20;;;18.70;99.90;;;;;;5039774;28;20121;-89
2023/07/12 03:21:09;;;;;;;18.80;4.07;;;18.70;99.90;;;;;;5041494;28;20036;-89
2023/07/12 03:23:37;;;;;;;18.60;4.35;;;18.70;99.90;;;;;;5056150;28;20068;-89
2023/07/12 03:26:06;;;;;;;19.13;3.97;;;18.70;99.90;;;;;;5022840;28;20412;-90
2023/07/12 03:28:37;;;;;;;20.77;4.63;;;18.70;99.90;;;;;;5039619;28;20037;-89
2023/07/12 03:31:10;;;;;;;17.88;3.83;;;18.70;99.90;;;;;;5049745;28;20045;-89
2023/07/12 03:33:36;;;;;;;14.65;4.07;;;18.70;99.90;;;;;;5043057;28;20427;-90
2023/07/12 03:36:05;;;;;;;15.40;4.03;;;18.80;99.90;;;;;;5059364;28;20047;-89
2023/07/12 03:38:31;;;;;;;16.08;4.15;;;18.80;99.90;;;;;;5059700;28;20033;-89
2023/07/12 03:41:02;;;;;;;19.05;4.40;;;18.80;99.90;;;;;;5059687;28;20384;-89
2023/07/12 03:43:28;;;;;;;19.80;4.75;;;18.80;99.90;;;;;;5059247;28;20028;-92
2023/07/12 03:45:54;;;;;;;20.38;5.18;;;18.70;99.90;;;;;;5042641;28;20140;-90
2023/07/12 03:48:25;;;;;;;23.65;5.50;;;18.70;99.90;;;;;;5059424;28;20166;-90
2023/07/12 03:50:56;;;;;;;19.73;4.93;;;18.70;99.90;;;;;;5047557;28;20064;-90
2023/07/12 03:53:31;;;;;;;17.23;4.50;;;18.70;99.90;;;;;;5039256;28;20090;-91
2023/07/12 03:56:00;;;;;;;22.98;4.90;;;18.60;99.90;;;;;;5056208;28;20033;-90
2023/07/12 03:58:35;;;;;;;17.95;4.82;;;18.60;99.90;;;;;;5040521;28;20040;-92
2023/07/12 04:01:08;;;;;;;18.85;4.70;;;18.60;99.90;;;;;;5033401;28;20094;-90
2023/07/12 04:03:45;;;;;;;18.25;4.75;;;18.60;99.90;;;;;;5043438;28;20054;-90
2023/07/12 04:06:12;;;;;;;15.93;4.25;;;18.60;99.90;;;;;;5076178;28;20040;-90
2023/07/12 04:08:39;;;;;;;17.35;4.32;;;18.60;99.90;;;;;;5075707;28;20024;-90
2023/07/12 04:11:11;;;;;;;18.95;4.75;;;18.60;99.90;;;;;;5059086;28;20063;-90
2023/07/12 04:13:46;;;;;;;19.70;4.68;;;18.60;99.90;;;;;;5059475;28;20369;-90
2023/07/12 04:16:17;;;;;;;19.45;4.90;;;18.60;99.90;;;;;;5055311;28;20033;-92
2023/07/12 04:18:48;;;;;;;20.83;5.07;;;18.60;99.90;;;;;;5039415;28;20082;-90
2023/07/12 04:21:16;;;;;;;19.50;4.20;;;18.60;99.90;;;;;;5038850;28;20332;-90
2023/07/12 04:23:49;;;;;;;26.90;5.30;;;18.60;99.90;;;;;;5038645;28;20036;-90
2023/07/12 04:26:25;;;;;;;20.10;4.75;;;18.60;99.90;;;;;;5058084;28;20504;-90
2023/07/12 04:28:54;;;;;;;17.75;4.85;;;18.60;99.90;;;;;;5042909;28;20306;-90
2023/07/12 04:31:21;;;;;;;20.55;4.80;;;18.60;99.90;;;;;;5058602;28;20048;-90
2023/07/12 04:33:48;;;;;;;22.98;5.47;;;18.60;99.90;;;;;;5038297;28;20076;-89
2023/07/12 04:36:16;;;;;;;21.17;5.07;;;18.60;99.90;;;;;;5049917;28;20078;-90
2023/07/12 04:38:46;;;;;;;21.02;5.18;;;18.70;99.90;;;;;;5042209;28;20028;-89
2023/07/12 04:41:14;;;;;;;26.00;5.50;;;18.70;99.90;;;;;;5041715;28;20554;-88
2023/07/12 04:43:40;;;;;;;18.45;4.60;;;18.70;99.90;;;;;;5058263;28;20067;-89
2023/07/12 04:46:06;;;;;;;25.90;6.05;;;18.60;99.90;;;;;;5041082;28;20362;-89
2023/07/12 04:48:35;;;;;;;20.35;5.15;;;18.60;99.90;;;;;;5041290;28;20066;-89
2023/07/12 04:51:04;;;;;;;27.90;6.25;;;18.60;99.90;;;;;;5037187;28;20371;-90
2023/07/12 04:53:33;;;;;;;20.33;5.22;;;18.60;99.90;;;;;;5038509;28;20020;-89
2023/07/12 04:56:00;;;;;;;26.83;5.70;;;18.50;99.90;;;;;;5041135;28;20064;-89
2023/07/12 04:58:26;;;;;;;18.85;5.15;;;18.50;99.90;;;;;;5062477;28;20059;-89
2023/07/12 05:00:53;;;;;;;20.65;5.25;;;18.50;99.90;;;;;;5025206;28;20043;-89
2023/07/12 05:03:19;;;;;;;22.42;5.22;;;18.50;99.90;;;;;;5041849;28;20028;-92
2023/07/12 05:05:45;;;;;;;21.10;5.45;;;18.50;99.90;;;;;;5038235;28;20380;-89
2023/07/12 05:08:12;;;;;;;18.70;5.13;;;18.50;99.90;;;;;;5021806;28;20428;-89
2023/07/12 05:10:40;;;;;;;23.77;5.85;;;18.50;99.90;;;;;;5038694;28;20025;-89
2023/07/12 05:13:09;;;;;;;23.55;5.78;;;18.50;99.90;;;;;;5022829;28;20155;-89
2023/07/12 05:15:38;;;;;;;21.63;5.15;;;18.50;99.90;;;;;;5028427;28;20063;-89
2023/07/12 05:18:07;;;;;;;21.33;5.65;;;18.60;99.90;;;;;;5038320;28;20086;-90
2023/07/12 05:20:38;;;;;;;19.75;5.05;;;18.60;99.90;;;;;;5021315;28;20136;-88
2023/07/12 05:23:04;;;;;;;23.33;5.82;;;18.70;99.90;;;;;;5037625;28;20497;-90
2023/07/12 05:25:30;;;;;;;19.85;4.70;;;18.70;99.90;;;;;;5056538;28;20404;-89
2023/07/12 05:27:56;;;;;;;20.70;4.68;;;18.70;99.90;;;;;;5057550;28;20039;-90
2023/07/12 05:30:22;;;;;;;20.00;4.57;;;18.70;99.90;;;;;;5056950;28;20415;-91
2023/07/12 05:32:51;;;;;;;19.10;5.68;;;18.80;99.90;;;;;;5060657;28;20038;-88
2023/07/12 05:35:20;;;;;;;18.67;4.47;;;18.80;99.90;;;;;;5034410;28;20120;-90
2023/07/12 05:37:51;;;;;;;23.92;4.68;;;18.80;99.90;;;;;;5026028;28;20135;-90
2023/07/12 05:40:17;;;;;;;23.45;5.18;;;18.80;99.90;;;;;;5060494;28;20044;-90
2023/07/12 05:42:49;;;;;;;18.30;4.80;;;18.80;99.90;;;;;;5047997;28;20053;-90
2023/07/12 05:45:29;;;;;;;18.15;4.78;;;18.80;99.90;;;;;;5067154;28;20028;-94
2023/07/12 05:48:08;;;;;;;20.95;5.05;;;18.70;99.90;;;;;;5064098;28;20126;-91
2023/07/12 05:51:01;;;;;;;21.02;5.40;;;18.70;99.90;;;;;;5048993;28;20043;-89
2023/07/12 05:53:29;;;;;;;16.88;4.80;;;18.70;99.90;;;;;;5060861;28;20065;-89
2023/07/12 05:56:15;;;;;;;20.70;4.85;;;18.70;99.90;;;;;;5043855;28;20020;-89
2023/07/12 05:58:58;;;;;;;20.50;5.38;;;18.80;99.90;;;;;;5036154;28;20069;-90
2023/07/12 06:01:45;;;;;;;18.10;5.50;;;18.90;99.90;;;;;;5038369;28;20048;-92
2023/07/12 06:04:14;;;;;;;20.67;4.80;;;18.90;99.90;;;;;;5064250;28;20039;-89
2023/07/12 06:06:50;;;;;;;;;;;;;;;;;;;;;
2023/07/12 06:09:25;;;;;;;28.10;5.97;;;18.80;99.90;;;;;;5054454;28;20028;-89
2023/07/12 06:11:56;;;;;;;11.75;3.58;;;18.80;99.90;;;;;;5060997;28;20046;-89
2023/07/12 06:14:22;;;;;;;9.45;2.53;;;18.70;99.90;;;;;;5057142;28;20020;-88
2023/07/12 06:16:51;;;;;;;12.13;3.10;;;18.60;99.90;;;;;;5034915;28;20041;-89
2023/07/12 06:19:17;;;;;;;14.05;3.33;;;18.50;99.90;;;;;;5027674;28;20101;-89
2023/07/12 06:21:46;;;;;;;18.70;4.38;;;18.40;99.90;;;;;;5079467;28;20296;-90
2023/07/12 06:24:18;;;;;;;14.95;4.45;;;18.40;99.90;;;;;;5048929;28;20043;-90
2023/07/12 06:27:07;;;;;;;19.95;4.30;;;18.40;99.90;;;;;;5045430;28;20066;-89
2023/07/12 06:29:40;;;;;;;18.80;4.90;;;18.40;99.90;;;;;;5028879;28;20032;-90
2023/07/12 06:32:11;;;;;;;20.33;5.38;;;18.40;99.90;;;;;;5025871;28;20067;-91
2023/07/12 06:34:45;;;;;;;19.17;4.88;;;18.40;99.90;;;;;;5055932;28;20031;-90
2023/07/12 06:37:33;;;;;;;22.27;4.82;;;18.50;99.90;;;;;;5030874;28;20055;-90
2023/07/12 06:39:59;;;;;;;27.98;5.53;;;18.60;99.90;;;;;;5058817;28;20033;-89
2023/07/12 06:42:31;;;;;;;25.60;6.20;;;18.70;99.90;;;;;;5057093;28;20087;-89
2023/07/12 06:46:01;;;;;;;;;;;;;;;;;;;;;
2023/07/12 06:48:55;;;;;;;21.00;3.92;;;18.70;99.90;;;;;;5027769;28;20462;-92
2023/07/12 06:51:33;;;;;;;;;;;18.60;99.90;;;;;;5028773;28;20029;-93
2023/07/12 06:57:02;;;;;;;7.18;1.90;;;18.30;99.90;;;;;;5060465;28;20021;-91
2023/07/12 06:59:39;;;;;;;5.38;2.00;;;18.20;99.90;;;;;;5042699;28;20056;-93
2023/07/12 07:02:33;;;;;;;11.40;2.35;;;18.10;99.90;;;;;;5060375;28;20024;-91
2023/07/12 07:05:13;;;;;;;7.30;2.47;;;18.00;99.90;;;;;;5037333;28;20147;-91
2023/07/12 07:08:07;;;;;;;12.55;3.13;;;17.90;99.90;;;;;;5059277;28;20036;-91
2023/07/12 07:11:01;;;;;;;10.25;2.58;;;17.90;99.90;;;;;;5040469;28;20033;-91
2023/07/12 07:13:45;;;;;;;11.05;2.65;;;17.90;99.90;;;;;;5025552;28;20423;-91
2023/07/12 07:16:22;;;;;;;11.77;2.70;;;17.70;99.90;;;;;;5044631;28;20036;-91
2023/07/12 07:18:53;;;;;;;13.43;3.40;;;17.80;99.90;;;;;;5059852;28;20121;-90
2023/07/12 07:21:31;;;;;;;10.93;3.08;;;17.80;99.90;;;;;;5041481;28;20021;-90
2023/07/12 07:23:57;;;;;;;11.52;3.25;;;17.90;99.90;;;;;;5040920;28;20043;-89
2023/07/12 07:26:33;;;;;;;9.27;2.72;;;18.00;99.90;;;;;;5049864;28;20016;-91
2023/07/12 07:29:04;;;;;;;13.80;3.15;;;18.10;99.90;;;;;;5042573;28;20052;-89
2023/07/12 07:31:35;;;;;;;11.35;3.20;;;18.10;99.90;;;;;;5056942;28;20050;-89
2023/07/12 07:34:24;;;;;;;17.67;3.22;;;18.20;99.90;;;;;;5072728;28;20029;-89
2023/07/12 07:37:02;;;;;;;12.02;3.03;;;18.30;99.90;;;;;;5053665;28;20040;-90
2023/07/12 07:39:54;;;;;;;11.13;3.13;;;18.40;99.90;;;;;;5027908;28;20068;-89
2023/07/12 07:42:42;;;;;;;15.38;3.03;;;18.50;99.90;;;;;;5043670;28;20039;-89
2023/07/12 07:45:26;;;;;;;;;;;;;;;;;;;;;
2023/07/12 07:48:10;;;;;;;11.40;3.05;;;18.60;99.90;;;;;;5053907;28;20033;-88
2023/07/12 07:50:46;;;;;;;11.07;2.92;;;18.60;99.90;;;;;;5021030;28;20037;-88
2023/07/12 07:53:45;;;;;;;;;;;;;;;;;;;;;
2023/07/12 07:56:36;;;;;;;11.68;2.90;;;18.70;99.90;;;;;;5054897;28;20112;-88
2023/07/12 07:59:42;;;;;;;15.85;3.30;;;18.80;99.90;;;;;;5037517;28;20317;-89
2023/07/12 08:02:24;;;;;;;;;;;;;;;;;;;;;
2023/07/12 08:05:12;;;;;;;;;;;;;;;;;;;;;
2023/07/12 08:07:57;;;;;;;12.38;3.00;;;18.90;99.90;;;;;;5045706;28;20064;-90
2023/07/12 08:11:05;;;;;;;;;;;18.90;99.90;;;;;;5042695;28;20025;-89
2023/07/12 08:14:01;;;;;;;14.20;3.55;;;19.00;99.90;;;;;;5025847;28;19942;-89
2023/07/12 08:16:56;;;;;;;12.43;3.22;;;19.00;99.90;;;;;;5034060;28;20419;-89
2023/07/12 08:19:35;;;;;;;12.82;3.38;;;19.10;99.90;;;;;;5038945;28;20055;-88
2023/07/12 08:22:13;;;;;;;9.70;2.67;;;19.20;99.90;;;;;;5043925;28;20052;-89
2023/07/12 08:25:27;;;;;;;14.73;3.42;;;19.30;99.90;;;;;;5026377;28;20045;-89
2023/07/12 08:28:34;;;;;;;10.07;2.53;;;19.30;99.90;;;;;;5045505;28;20036;-89
2023/07/12 08:31:58;;;;;;;;;;;;;;;;;;;;;
2023/07/12 08:38:50;;;;;;;;;;;;;;;;;;;;;
2023/07/12 08:42:05;;;;;;;;;;;;;;;;;;;;;
2023/07/12 08:46:00;;;;;;;;;;;;;;;;;;;;;
2023/07/12 08:50:11;;;;;;;10.13;2.70;;;19.70;99.90;;;;;;5068962;28;20082;-91
2023/07/12 08:53:55;;;;;;;;;;;;;;;;;;;;;
2023/07/12 08:57:43;;;;;;;8.20;2.50;;;19.80;99.90;;;;;;5059185;28;20032;-90
2023/07/12 09:01:24;;;;;;;;;;;;;;;;;;;;;
2023/07/12 09:04:39;;;;;;;14.43;3.17;;;20.20;99.90;;;;;;5037797;28;20029;-89
2023/07/12 09:07:23;;;;;;;9.40;2.47;;;20.20;99.90;;;;;;5039283;28;20419;-91
2023/07/12 09:10:46;;;;;;;7.07;2.22;;;20.20;99.90;;;;;;5026643;28;20057;-92
2023/07/12 09:13:44;;;;;;;;;;;;;;;;;;;;;
2023/07/12 09:17:01;;;;;;;7.65;2.20;;;20.40;99.90;;;;;;5059232;28;20035;-91
2023/07/12 09:20:00;;;;;;;;;;;;;;;;;;;;;
2023/07/12 09:23:22;;;;;;;;;;;;;;;;;;;;;
2023/07/12 09:26:56;;;;;;;8.25;2.00;;;20.80;99.90;;;;;;5067994;28;20060;-91
2023/07/12 09:29:45;;;;;;;6.35;1.88;;;20.90;99.90;;;;;;5036243;28;20056;-91
2023/07/12 09:32:45;;;;;;;7.22;2.00;;;21.10;99.90;;;;;;5054930;28;20052;-91
2023/07/12 09:36:00;;;;;;;8.13;2.65;;;21.10;99.90;;;;;;5043767;28;20048;-89
2023/07/12 09:38:47;;;;;;;6.43;2.15;;;21.20;99.90;;;;;;5066606;28;20032;-89
2023/07/12 09:41:23;;;;;;;6.72;1.95;;;21.20;99.90;;;;;;5051942;28;20111;-90
2023/07/12 09:44:00;;;;;;;4.85;1.70;;;21.40;99.90;;;;;;5039249;28;20064;-90
2023/07/12 09:46:48;;;;;;;7.82;2.42;;;21.50;99.90;;;;;;5044886;28;20028;-90
2023/07/12 09:50:04;;;;;;;10.30;2.60;;;21.60;99.90;;;;;;5044756;28;20033;-93
2023/07/12 09:52:51;;;;;;;8.35;2.10;;;21.50;99.90;;;;;;5043664;28;20028;-89
2023/07/12 09:55:35;;;;;;;9.93;2.22;;;21.50;99.90;;;;;;5023838;28;20604;-89
2023/07/12 09:58:17;;;;;;;8.50;2.13;;;21.50;99.90;;;;;;5024487;28;20076;-91
2023/07/12 10:00:52;;;;;;;8.38;2.13;;;21.60;99.90;;;;;;5036420;28;20086;-91
2023/07/12 10:03:47;;;;;;;5.13;1.80;;;21.60;99.90;;;;;;5040608;28;20463;-91
2023/07/12 10:06:39;;;;;;;6.30;1.85;;;21.60;99.90;;;;;;5024769;28;20078;-90
2023/07/12 10:09:32;;;;;;;7.35;2.08;;;21.60;99.90;;;;;;5044539;28;20045;-90
2023/07/12 10:12:18;;;;;;;10.18;1.60;;;21.60;99.90;;;;;;5039056;28;20047;-90
2023/07/12 10:15:05;;;;;;;8.05;1.90;;;21.70;99.90;;;;;;5055892;28;20043;-90
2023/07/12 10:17:47;;;;;;;5.93;1.50;;;21.50;99.90;;;;;;5022832;28;20037;-91
2023/07/12 10:20:24;;;;;;;7.47;1.48;;;21.50;99.90;;;;;;5022466;28;20029;-91
2023/07/12 10:23:03;;;;;;;5.47;1.70;;;21.60;99.90;;;;;;5040658;28;20051;-91
2023/07/12 10:25:37;;;;;;;5.25;1.38;;;21.60;99.90;;;;;;5020185;28;20021;-90
2023/07/12 10:28:17;;;;;;;8.30;2.10;;;21.60;99.90;;;;;;5042226;28;20140;-92
2023/07/12 10:31:51;;;;;;;5.28;1.35;;;21.60;99.90;;;;;;5060020;28;20044;-91
2023/07/12 10:35:12;;;;;;;6.32;1.70;;;21.60;99.90;;;;;;5051741;28;20304;-91
2023/07/12 10:38:33;;;;;;;;;;;;;;;;;;;;;
2023/07/12 10:44:42;;;;;;;7.53;1.55;;;21.80;99.90;;;;;;5038498;28;20121;-90
2023/07/12 10:47:41;;;;;;;7.63;1.83;;;21.80;99.90;;;;;;5061032;28;20047;-91
2023/07/12 10:50:48;;;;;;;4.85;1.25;;;22.00;99.90;;;;;;5055500;28;20036;-89
2023/07/12 10:54:08;;;;;;;;;;;;;;;;;;;;;
2023/07/12 10:56:39;;;;;;;6.55;1.40;;;22.10;99.90;;;;;;5058345;28;20464;-90
2023/07/12 10:59:30;;;;;;;6.43;1.55;;;22.10;99.90;;;;;;5047693;28;20118;-90
2023/07/12 11:02:42;;;;;;;6.82;1.95;;;22.20;99.90;;;;;;5042366;28;20040;-90
2023/07/12 11:05:39;;;;;;;;;;;22.30;99.90;;;;;;5026484;28;20032;-91
2023/07/12 11:13:41;;;;;;;;;;;;;;;;;;;;;
2023/07/12 11:25:57;;;;;;;;;;;;;;;;;;;;;
2023/07/12 11:29:58;;;;;;;;;;;;;;;;;;;;;
2023/07/12 11:36:33;;;;;;;7.13;1.75;;;22.40;99.90;;;;;;5018441;28;20121;-91
2023/07/12 11:39:27;;;;;;;6.45;1.50;;;22.30;99.90;;;;;;5063220;28;20102;-91
2023/07/12 11:42:41;;;;;;;5.53;1.45;;;22.30;99.90;;;;;;5066373;28;20101;-91
2023/07/12 11:45:23;;;;;;;4.82;1.40;;;22.30;99.90;;;;;;5047234;28;20438;-91
2023/07/12 11:48:04;;;;;;;6.55;1.40;;;22.40;99.90;;;;;;5046349;28;20043;-92
2023/07/12 11:51:04;;;;;;;5.78;1.20;;;22.50;99.90;;;;;;5062738;28;20027;-91
2023/07/12 11:54:03;;;;;;;5.70;1.23;;;22.50;99.90;;;;;;5065571;28;20028;-91
2023/07/12 11:57:17;;;;;;;5.18;1.33;;;22.40;99.90;;;;;;5051198;28;20040;-91
2023/07/12 12:00:39;;;;;;;6.95;1.40;;;22.40;99.90;;;;;;5075745;28;20056;-91
2023/07/12 12:03:43;;;;;;;;;;;22.40;99.90;;;;;;5066049;28;20035;-91
2023/07/12 12:06:33;;;;;;;5.93;1.55;;;22.50;99.90;;;;;;5064656;28;19915;-91
2023/07/12 12:17:30;;;;;;;;;;;;;;;;;;;;;
2023/07/12 12:21:13;;;;;;;;;;;;;;;;;;;;;
2023/07/12 12:25:33;;;;;;;;;;;;;;;;;;;;;
2023/07/12 12:32:45;;;;;;;5.63;1.50;;;22.50;99.90;;;;;;4939749;29;20051;-92
2023/07/12 12:36:19;;;;;;;;;;;22.60;99.90;;;;;;4961359;28;20064;-91
2023/07/12 12:39:06;;;;;;;;;;;;;;;;;;;;;
2023/07/12 12:45:50;;;;;;;6.13;1.30;;;22.90;99.90;;;;;;5040133;28;20040;-91
2023/07/12 12:53:45;;;;;;;;;;;;;;;;;;;;;
2023/07/12 13:13:18;;;;;;;2.78;1.20;;;23.10;99.00;;;;;;4993502;28;20040;-90
2023/07/12 13:15:47;;;;;;;3.55;1.20;;;23.10;98.70;;;;;;5039029;28;20051;-91
2023/07/12 13:18:53;;;;;;;4.55;1.20;;;23.10;98.90;;;;;;5053993;28;20033;-91
2023/07/12 13:21:37;;;;;;;4.35;1.20;;;23.10;98.40;;;;;;5022355;28;20025;-91
2023/07/12 13:25:07;;;;;;;3.63;1.20;;;23.20;99.00;;;;;;5042965;28;20047;-91
2023/07/12 13:27:58;;;;;;;;;;;;;;;;;;;;;
2023/07/12 13:30:58;;;;;;;4.40;1.50;;;23.20;98.80;;;;;;5073255;28;20047;-90
2023/07/12 13:33:34;;;;;;;4.07;1.40;;;23.20;98.90;;;;;;5034586;28;20135;-90
2023/07/12 13:36:35;;;;;;;4.22;1.20;;;23.30;99.00;;;;;;5043661;28;20028;-90
2023/07/12 13:39:33;;;;;;;7.40;1.33;;;23.20;99.20;;;;;;5030407;28;20061;-90
2023/07/12 13:42:17;;;;;;;5.20;1.25;;;23.30;98.80;;;;;;5045985;28;20020;-90
2023/07/12 13:45:14;;;;;;;4.53;1.40;;;23.30;98.60;;;;;;5054356;28;20243;-90
2023/07/12 13:48:09;;;;;;;;;;;;;;;;;;;;;
2023/07/12 13:50:39;;;;;;;3.13;1.20;;;23.40;98.40;;;;;;5046397;28;20037;-91
2023/07/12 13:53:46;;;;;;;;;;;;;;;;;;;;;
2023/07/12 13:56:47;;;;;;;;;;;;;;;;;;;;;
2023/07/12 14:00:16;;;;;;;;;;;;;;;;;;;;;
2023/07/12 14:06:18;;;;;;;3.38;1.50;;;23.40;98.40;;;;;;5061466;28;20036;-89
2023/07/12 14:12:49;;;;;;;4.63;1.70;;;23.40;97.90;;;;;;5044489;28;20059;-91
2023/07/12 14:19:09;;;;;;;5.45;1.40;;;23.60;99.30;;;;;;5064281;28;20061;-91
2023/07/12 14:21:55;;;;;;;6.85;2.00;;;23.60;99.00;;;;;;5048914;28;20032;-91
2023/07/12 14:24:48;;;;;;;4.60;1.42;;;23.60;99.20;;;;;;5059398;28;20366;-90
2023/07/12 14:28:02;;;;;;;;;;;;;;;;;;;;;
2023/07/12 14:31:06;;;;;;;;;;;;;;;;;;;;;
2023/07/12 14:34:00;;;;;;;5.18;1.48;;;23.60;98.90;;;;;;5054573;28;20127;-90
2023/07/12 14:36:44;;;;;;;5.68;1.48;;;23.70;98.80;;;;;;5057486;28;20030;-91
2023/07/12 14:39:30;;;;;;;3.75;1.40;;;23.70;99.00;;;;;;5055306;28;20036;-91
2023/07/12 14:43:03;;;;;;;7.40;1.80;;;23.80;99.00;;;;;;5034404;28;20086;-91
2023/07/12 14:45:39;;;;;;;6.88;1.52;;;23.80;99.00;;;;;;5042855;28;20020;-90
2023/07/12 14:48:41;;;;;;;6.18;1.90;;;23.90;99.00;;;;;;5056166;28;20038;-91
2023/07/12 14:51:45;;;;;;;;;;;;;;;;;;;;;
2023/07/12 14:54:37;;;;;;;5.30;1.60;;;23.80;98.90;;;;;;5078249;28;20024;-90
2023/07/12 14:57:24;;;;;;;6.60;1.80;;;23.70;99.10;;;;;;5060695;28;20044;-90
2023/07/12 14:59:59;;;;;;;4.10;1.40;;;23.80;99.30;;;;;;5033079;28;20040;-91
2023/07/12 15:03:00;;;;;;;;;;;;;;;;;;;;;
2023/07/12 15:08:57;;;;;;;5.50;1.50;;;23.90;99.20;;;;;;5045988;28;20387;-91
2023/07/12 15:11:51;;;;;;;;;;;;;;;;;;;;;
2023/07/12 15:15:21;;;;;;;7.28;1.80;;;23.80;99.00;;;;;;4992980;28;20030;-92
2023/07/12 15:18:25;;;;;;;6.18;1.70;;;23.80;98.70;;;;;;4981114;28;20732;-92
2023/07/12 15:21:34;;;;;;;7.70;1.48;;;23.80;98.90;;;;;;5046357;28;20029;-90
2023/07/12 15:24:48;;;;;;;;;;;;;;;;;;;;;
2023/07/12 15:28:38;;;;;;;7.38;1.52;;;23.80;98.60;;;;;;5049296;28;20414;-92
2023/07/12 15:31:59;;;;;;;4.43;1.40;;;23.70;98.50;;;;;;5056091;28;20024;-91
2023/07/12 15:41:43;;;;;;;;;;;;;;;;;;;;;
2023/07/12 15:45:05;;;;;;;5.28;2.55;;;24.10;98.00;;;;;;5037874;28;20035;-90
2023/07/12 15:48:34;;;;;;;;;;;;;;;;;;;;;
2023/07/12 15:51:36;;;;;;;5.35;1.50;;;24.30;97.50;;;;;;5037567;28;20033;-91
2023/07/12 15:54:42;;;;;;;5.47;1.73;;;24.20;97.60;;;;;;5007495;28;20432;-91
2023/07/12 15:57:34;;;;;;;;;;;;;;;;;;;;;
2023/07/12 16:00:28;;;;;;;8.02;1.50;;;24.10;97.60;;;;;;5028352;28;20029;-92
2023/07/12 16:03:36;;;;;;;6.78;1.95;;;24.10;97.60;;;;;;5027899;28;20051;-90
2023/07/12 16:06:37;;;;;;;;;;;;;;;;;;;;;
2023/07/12 16:10:23;;;;;;;;;;;;;;;;;;;;;
2023/07/12 16:13:12;;;;;;;;;;;;;;;;;;;;;
2023/07/12 16:16:33;;;;;;;4.82;1.40;;;24.40;98.60;;;;;;5009921;28;20060;-93
2023/07/12 16:19:29;;;;;;;9.75;2.88;;;24.50;97.90;;;;;;5036128;28;20127;-92
2023/07/12 16:25:51;;;;;;;6.82;1.70;;;24.40;97.70;;;;;;5039405;28;20041;-91
2023/07/12 16:28:25;;;;;;;6.53;1.85;;;24.40;97.70;;;;;;5005028;28;20052;-91
2023/07/12 16:38:04;;;;;;;;;;;;;;;;;;;;;
2023/07/12 16:41:45;;;;;;;;;;;;;;;;;;;;;
2023/07/12 16:44:44;;;;;;;7.18;1.80;;;24.50;96.80;;;;;;5056924;28;20033;-92
2023/07/12 16:51:58;;;;;;;6.57;1.80;;;24.70;97.20;;;;;;5011536;28;20041;-93